sensor_id;sensor_type;location;lat;lon;timestamp;P1;durP1;ratioP1;P2;durP2;ratioP2
66483;SDS011;53299;52.160;7.556;2022-12-20T00:00:48;4.97;;;1.90;;
66483;SDS011;53299;52.160;7.556;2022-12-20T00:03:14;4.70;;;1.77;;
66483;SDS011;53299;52.160;7.556;2022-12-20T00:05:39;6.27;;;2.17;;
66483;SDS011;53299;52.160;7.556;2022-12-20T00:08:06;5.07;;;2.10;;
66483;SDS011;53299;52.160;7.556;2022-12-20T00:10:35;5.07;;;2.00;;
66483;SDS011;53299;52.160;7.556;2022-12-20T00:13:01;4.72;;;1.88;;
66483;SDS011;53299;52.160;7.556;2022-12-20T00:15:26;4.60;;;1.80;;
66483;SDS011;53299;52.160;7.556;2022-12-20T00:17:52;4.93;;;1.90;;
66483;SDS011;53299;52.160;7.556;2022-12-20T00:20:17;4.83;;;2.13;;
66483;SDS011;53299;52.160;7.556;2022-12-20T00:22:42;5.30;;;2.00;;
66483;SDS011;53299;52.160;7.556;2022-12-20T00:25:07;4.73;;;2.00;;
66483;SDS011;53299;52.160;7.556;2022-12-20T00:27:33;5.13;;;2.07;;
66483;SDS011;53299;52.160;7.556;2022-12-20T00:29:58;4.93;;;1.87;;
66483;SDS011;53299;52.160;7.556;2022-12-20T00:32:23;4.77;;;1.90;;
66483;SDS011;53299;52.160;7.556;2022-12-20T00:34:49;5.00;;;2.00;;
66483;SDS011;53299;52.160;7.556;2022-12-20T00:37:14;4.70;;;2.00;;
66483;SDS011;53299;52.160;7.556;2022-12-20T00:39:39;4.90;;;1.93;;
66483;SDS011;53299;52.160;7.556;2022-12-20T00:42:04;4.80;;;1.63;;
66483;SDS011;53299;52.160;7.556;2022-12-20T00:44:30;5.50;;;2.00;;
66483;SDS011;53299;52.160;7.556;2022-12-20T00:46:55;4.93;;;1.77;;
66483;SDS011;53299;52.160;7.556;2022-12-20T00:49:20;4.83;;;1.90;;
66483;SDS011;53299;52.160;7.556;2022-12-20T00:51:46;4.68;;;1.80;;
66483;SDS011;53299;52.160;7.556;2022-12-20T00:54:11;6.40;;;1.90;;
66483;SDS011;53299;52.160;7.556;2022-12-20T00:56:36;4.77;;;1.90;;
66483;SDS011;53299;52.160;7.556;2022-12-20T00:59:01;4.40;;;1.80;;
66483;SDS011;53299;52.160;7.556;2022-12-20T01:01:28;4.70;;;1.80;;
66483;SDS011;53299;52.160;7.556;2022-12-20T01:03:55;5.00;;;1.90;;
66483;SDS011;53299;52.160;7.556;2022-12-20T01:06:21;5.03;;;1.60;;
66483;SDS011;53299;52.160;7.556;2022-12-20T01:08:48;4.38;;;1.80;;
66483;SDS011;53299;52.160;7.556;2022-12-20T01:11:17;5.30;;;2.00;;
66483;SDS011;53299;52.160;7.556;2022-12-20T01:13:48;4.40;;;1.83;;
66483;SDS011;53299;52.160;7.556;2022-12-20T01:16:17;4.70;;;1.70;;
66483;SDS011;53299;52.160;7.556;2022-12-20T01:18:48;4.90;;;1.88;;
66483;SDS011;53299;52.160;7.556;2022-12-20T01:21:14;4.85;;;1.80;;
66483;SDS011;53299;52.160;7.556;2022-12-20T01:23:41;4.13;;;1.63;;
66483;SDS011;53299;52.160;7.556;2022-12-20T01:26:08;4.70;;;1.70;;
66483;SDS011;53299;52.160;7.556;2022-12-20T01:28:36;4.40;;;1.90;;
66483;SDS011;53299;52.160;7.556;2022-12-20T01:31:06;4.90;;;1.80;;
66483;SDS011;53299;52.160;7.556;2022-12-20T01:33:33;4.57;;;1.70;;
66483;SDS011;53299;52.160;7.556;2022-12-20T01:36:00;4.63;;;1.85;;
66483;SDS011;53299;52.160;7.556;2022-12-20T01:38:27;4.78;;;1.60;;
66483;SDS011;53299;52.160;7.556;2022-12-20T01:40:53;4.93;;;1.80;;
66483;SDS011;53299;52.160;7.556;2022-12-20T01:43:19;4.35;;;1.60;;
66483;SDS011;53299;52.160;7.556;2022-12-20T01:45:45;4.68;;;1.73;;
66483;SDS011;53299;52.160;7.556;2022-12-20T01:48:11;4.70;;;1.70;;
66483;SDS011;53299;52.160;7.556;2022-12-20T01:50:45;4.63;;;1.80;;
66483;SDS011;53299;52.160;7.556;2022-12-20T01:53:10;3.70;;;1.50;;
66483;SDS011;53299;52.160;7.556;2022-12-20T01:55:36;4.10;;;1.70;;
66483;SDS011;53299;52.160;7.556;2022-12-20T01:58:04;4.80;;;1.67;;
66483;SDS011;53299;52.160;7.556;2022-12-20T02:00:33;5.20;;;1.85;;
66483;SDS011;53299;52.160;7.556;2022-12-20T02:02:59;4.00;;;1.60;;
66483;SDS011;53299;52.160;7.556;2022-12-20T02:05:33;4.90;;;1.88;;
66483;SDS011;53299;52.160;7.556;2022-12-20T02:08:03;4.28;;;1.52;;
66483;SDS011;53299;52.160;7.556;2022-12-20T02:10:35;3.95;;;1.63;;
66483;SDS011;53299;52.160;7.556;2022-12-20T02:13:07;4.30;;;1.60;;
66483;SDS011;53299;52.160;7.556;2022-12-20T02:15:43;4.50;;;1.90;;
66483;SDS011;53299;52.160;7.556;2022-12-20T02:26:44;5.28;;;1.70;;
66483;SDS011;53299;52.160;7.556;2022-12-20T02:29:19;4.43;;;1.80;;
66483;SDS011;53299;52.160;7.556;2022-12-20T02:31:52;4.60;;;1.60;;
66483;SDS011;53299;52.160;7.556;2022-12-20T02:34:24;4.13;;;1.40;;
66483;SDS011;53299;52.160;7.556;2022-12-20T02:36:50;4.68;;;1.80;;
66483;SDS011;53299;52.160;7.556;2022-12-20T02:39:16;4.88;;;1.83;;
66483;SDS011;53299;52.160;7.556;2022-12-20T02:41:51;4.37;;;1.80;;
66483;SDS011;53299;52.160;7.556;2022-12-20T02:44:21;4.45;;;1.60;;
66483;SDS011;53299;52.160;7.556;2022-12-20T02:46:51;3.60;;;1.33;;
66483;SDS011;53299;52.160;7.556;2022-12-20T02:49:19;4.18;;;1.50;;
66483;SDS011;53299;52.160;7.556;2022-12-20T02:51:48;3.45;;;1.38;;
66483;SDS011;53299;52.160;7.556;2022-12-20T02:54:15;3.58;;;1.40;;
66483;SDS011;53299;52.160;7.556;2022-12-20T02:56:44;4.18;;;1.40;;
66483;SDS011;53299;52.160;7.556;2022-12-20T02:59:23;4.33;;;1.50;;
66483;SDS011;53299;52.160;7.556;2022-12-20T03:01:53;4.32;;;1.55;;
66483;SDS011;53299;52.160;7.556;2022-12-20T03:04:20;4.43;;;1.63;;
66483;SDS011;53299;52.160;7.556;2022-12-20T03:07:00;4.35;;;1.60;;
66483;SDS011;53299;52.160;7.556;2022-12-20T03:09:28;3.58;;;1.40;;
66483;SDS011;53299;52.160;7.556;2022-12-20T03:11:55;3.80;;;1.40;;
66483;SDS011;53299;52.160;7.556;2022-12-20T03:14:20;3.67;;;1.42;;
66483;SDS011;53299;52.160;7.556;2022-12-20T03:16:46;3.70;;;1.50;;
66483;SDS011;53299;52.160;7.556;2022-12-20T03:19:11;3.63;;;1.30;;
66483;SDS011;53299;52.160;7.556;2022-12-20T03:21:37;3.45;;;1.33;;
66483;SDS011;53299;52.160;7.556;2022-12-20T03:24:02;4.23;;;1.60;;
66483;SDS011;53299;52.160;7.556;2022-12-20T03:26:27;3.70;;;1.30;;
66483;SDS011;53299;52.160;7.556;2022-12-20T03:28:53;4.27;;;1.50;;
66483;SDS011;53299;52.160;7.556;2022-12-20T03:31:18;3.80;;;1.40;;
66483;SDS011;53299;52.160;7.556;2022-12-20T03:33:44;3.88;;;1.52;;
66483;SDS011;53299;52.160;7.556;2022-12-20T03:36:09;3.70;;;1.33;;
66483;SDS011;53299;52.160;7.556;2022-12-20T03:38:34;3.83;;;1.60;;
66483;SDS011;53299;52.160;7.556;2022-12-20T03:40:59;3.97;;;1.40;;
66483;SDS011;53299;52.160;7.556;2022-12-20T03:43:25;3.63;;;1.40;;
66483;SDS011;53299;52.160;7.556;2022-12-20T03:45:50;3.90;;;1.50;;
66483;SDS011;53299;52.160;7.556;2022-12-20T03:48:15;4.00;;;1.53;;
66483;SDS011;53299;52.160;7.556;2022-12-20T03:50:41;3.93;;;1.50;;
66483;SDS011;53299;52.160;7.556;2022-12-20T03:53:06;3.70;;;1.40;;
66483;SDS011;53299;52.160;7.556;2022-12-20T03:55:32;3.50;;;1.47;;
66483;SDS011;53299;52.160;7.556;2022-12-20T03:57:57;4.13;;;1.60;;
66483;SDS011;53299;52.160;7.556;2022-12-20T04:00:22;3.47;;;1.30;;
66483;SDS011;53299;52.160;7.556;2022-12-20T04:02:48;3.77;;;1.30;;
66483;SDS011;53299;52.160;7.556;2022-12-20T04:05:13;3.83;;;1.40;;
66483;SDS011;53299;52.160;7.556;2022-12-20T04:07:38;3.90;;;1.50;;
66483;SDS011;53299;52.160;7.556;2022-12-20T04:10:04;3.67;;;1.40;;
66483;SDS011;53299;52.160;7.556;2022-12-20T04:12:30;3.83;;;1.50;;
66483;SDS011;53299;52.160;7.556;2022-12-20T04:14:55;3.97;;;1.50;;
66483;SDS011;53299;52.160;7.556;2022-12-20T04:17:20;3.47;;;1.40;;
66483;SDS011;53299;52.160;7.556;2022-12-20T04:19:45;4.43;;;1.67;;
66483;SDS011;53299;52.160;7.556;2022-12-20T04:22:11;4.03;;;1.40;;
66483;SDS011;53299;52.160;7.556;2022-12-20T04:24:36;4.17;;;1.40;;
66483;SDS011;53299;52.160;7.556;2022-12-20T04:27:01;4.10;;;1.53;;
66483;SDS011;53299;52.160;7.556;2022-12-20T04:29:27;3.85;;;1.35;;
66483;SDS011;53299;52.160;7.556;2022-12-20T04:31:52;3.93;;;1.40;;
66483;SDS011;53299;52.160;7.556;2022-12-20T04:34:17;5.57;;;1.63;;
66483;SDS011;53299;52.160;7.556;2022-12-20T04:36:42;3.33;;;1.30;;
66483;SDS011;53299;52.160;7.556;2022-12-20T04:39:08;3.77;;;1.40;;
66483;SDS011;53299;52.160;7.556;2022-12-20T04:41:33;3.40;;;1.33;;
66483;SDS011;53299;52.160;7.556;2022-12-20T04:43:58;3.77;;;1.40;;
66483;SDS011;53299;52.160;7.556;2022-12-20T04:46:24;3.70;;;1.40;;
66483;SDS011;53299;52.160;7.556;2022-12-20T04:48:51;3.63;;;1.40;;
66483;SDS011;53299;52.160;7.556;2022-12-20T04:51:16;4.13;;;1.58;;
66483;SDS011;53299;52.160;7.556;2022-12-20T04:53:42;2.73;;;1.23;;
66483;SDS011;53299;52.160;7.556;2022-12-20T04:56:07;3.15;;;1.30;;
66483;SDS011;53299;52.160;7.556;2022-12-20T04:58:33;3.50;;;1.47;;
66483;SDS011;53299;52.160;7.556;2022-12-20T05:00:58;3.70;;;1.43;;
66483;SDS011;53299;52.160;7.556;2022-12-20T05:03:24;3.60;;;1.30;;
66483;SDS011;53299;52.160;7.556;2022-12-20T05:05:49;4.00;;;1.35;;
66483;SDS011;53299;52.160;7.556;2022-12-20T05:08:15;4.07;;;1.40;;
66483;SDS011;53299;52.160;7.556;2022-12-20T05:10:40;5.10;;;1.57;;
66483;SDS011;53299;52.160;7.556;2022-12-20T05:13:06;4.63;;;1.42;;
66483;SDS011;53299;52.160;7.556;2022-12-20T05:15:32;4.10;;;1.33;;
66483;SDS011;53299;52.160;7.556;2022-12-20T05:17:57;4.65;;;1.50;;
66483;SDS011;53299;52.160;7.556;2022-12-20T05:20:23;3.57;;;1.40;;
66483;SDS011;53299;52.160;7.556;2022-12-20T05:22:48;4.17;;;1.40;;
66483;SDS011;53299;52.160;7.556;2022-12-20T05:25:13;3.23;;;1.30;;
66483;SDS011;53299;52.160;7.556;2022-12-20T05:27:39;3.65;;;1.15;;
66483;SDS011;53299;52.160;7.556;2022-12-20T05:30:04;3.33;;;1.40;;
66483;SDS011;53299;52.160;7.556;2022-12-20T05:32:30;3.23;;;1.20;;
66483;SDS011;53299;52.160;7.556;2022-12-20T05:34:55;3.87;;;1.27;;
66483;SDS011;53299;52.160;7.556;2022-12-20T05:37:20;4.40;;;1.50;;
66483;SDS011;53299;52.160;7.556;2022-12-20T05:39:46;3.80;;;1.33;;
66483;SDS011;53299;52.160;7.556;2022-12-20T05:42:11;2.97;;;1.27;;
66483;SDS011;53299;52.160;7.556;2022-12-20T05:44:36;3.33;;;1.30;;
66483;SDS011;53299;52.160;7.556;2022-12-20T05:47:01;3.63;;;1.50;;
66483;SDS011;53299;52.160;7.556;2022-12-20T05:49:27;3.47;;;1.30;;
66483;SDS011;53299;52.160;7.556;2022-12-20T05:51:52;3.80;;;1.50;;
66483;SDS011;53299;52.160;7.556;2022-12-20T05:54:17;3.43;;;1.13;;
66483;SDS011;53299;52.160;7.556;2022-12-20T05:56:43;2.93;;;1.23;;
66483;SDS011;53299;52.160;7.556;2022-12-20T05:59:08;3.53;;;1.20;;
66483;SDS011;53299;52.160;7.556;2022-12-20T06:01:33;4.80;;;1.50;;
66483;SDS011;53299;52.160;7.556;2022-12-20T06:03:58;4.10;;;1.30;;
66483;SDS011;53299;52.160;7.556;2022-12-20T06:06:24;3.27;;;1.30;;
66483;SDS011;53299;52.160;7.556;2022-12-20T06:08:49;4.57;;;1.40;;
66483;SDS011;53299;52.160;7.556;2022-12-20T06:11:14;3.80;;;1.40;;
66483;SDS011;53299;52.160;7.556;2022-12-20T06:13:39;3.57;;;1.30;;
66483;SDS011;53299;52.160;7.556;2022-12-20T06:16:05;3.63;;;1.33;;
66483;SDS011;53299;52.160;7.556;2022-12-20T06:18:30;3.63;;;1.50;;
66483;SDS011;53299;52.160;7.556;2022-12-20T06:20:55;3.53;;;1.50;;
66483;SDS011;53299;52.160;7.556;2022-12-20T06:23:21;3.97;;;1.57;;
66483;SDS011;53299;52.160;7.556;2022-12-20T06:25:46;3.03;;;1.33;;
66483;SDS011;53299;52.160;7.556;2022-12-20T06:28:11;3.40;;;1.30;;
66483;SDS011;53299;52.160;7.556;2022-12-20T06:30:36;3.20;;;1.30;;
66483;SDS011;53299;52.160;7.556;2022-12-20T06:33:02;3.80;;;1.50;;
66483;SDS011;53299;52.160;7.556;2022-12-20T06:35:28;3.47;;;1.30;;
66483;SDS011;53299;52.160;7.556;2022-12-20T06:37:53;3.63;;;1.33;;
66483;SDS011;53299;52.160;7.556;2022-12-20T06:40:19;3.72;;;1.30;;
66483;SDS011;53299;52.160;7.556;2022-12-20T06:42:44;4.33;;;1.63;;
66483;SDS011;53299;52.160;7.556;2022-12-20T06:45:09;4.10;;;1.47;;
66483;SDS011;53299;52.160;7.556;2022-12-20T06:47:35;4.65;;;1.38;;
66483;SDS011;53299;52.160;7.556;2022-12-20T06:50:01;3.87;;;1.37;;
66483;SDS011;53299;52.160;7.556;2022-12-20T06:52:26;4.10;;;1.43;;
66483;SDS011;53299;52.160;7.556;2022-12-20T06:54:51;4.10;;;1.33;;
66483;SDS011;53299;52.160;7.556;2022-12-20T06:57:16;3.90;;;1.33;;
66483;SDS011;53299;52.160;7.556;2022-12-20T06:59:42;4.00;;;1.50;;
66483;SDS011;53299;52.160;7.556;2022-12-20T07:02:09;3.50;;;1.30;;
66483;SDS011;53299;52.160;7.556;2022-12-20T07:04:35;3.83;;;1.38;;
66483;SDS011;53299;52.160;7.556;2022-12-20T07:07:00;3.93;;;1.40;;
66483;SDS011;53299;52.160;7.556;2022-12-20T07:09:25;3.87;;;1.40;;
66483;SDS011;53299;52.160;7.556;2022-12-20T07:11:50;3.53;;;1.27;;
66483;SDS011;53299;52.160;7.556;2022-12-20T07:14:16;3.77;;;1.40;;
66483;SDS011;53299;52.160;7.556;2022-12-20T07:16:41;4.30;;;1.43;;
66483;SDS011;53299;52.160;7.556;2022-12-20T07:19:08;4.00;;;1.47;;
66483;SDS011;53299;52.160;7.556;2022-12-20T07:21:35;4.05;;;1.45;;
66483;SDS011;53299;52.160;7.556;2022-12-20T07:24:00;4.93;;;1.53;;
66483;SDS011;53299;52.160;7.556;2022-12-20T07:26:25;4.27;;;1.50;;
66483;SDS011;53299;52.160;7.556;2022-12-20T07:28:51;3.50;;;1.40;;
66483;SDS011;53299;52.160;7.556;2022-12-20T07:31:16;4.33;;;1.47;;
66483;SDS011;53299;52.160;7.556;2022-12-20T07:33:41;4.33;;;1.50;;
66483;SDS011;53299;52.160;7.556;2022-12-20T07:36:08;3.97;;;1.57;;
66483;SDS011;53299;52.160;7.556;2022-12-20T07:38:35;3.38;;;1.33;;
66483;SDS011;53299;52.160;7.556;2022-12-20T07:41:08;3.60;;;1.37;;
66483;SDS011;53299;52.160;7.556;2022-12-20T07:43:34;4.45;;;1.60;;
66483;SDS011;53299;52.160;7.556;2022-12-20T07:46:00;4.20;;;1.30;;
66483;SDS011;53299;52.160;7.556;2022-12-20T07:48:25;3.95;;;1.40;;
66483;SDS011;53299;52.160;7.556;2022-12-20T07:50:51;4.07;;;1.60;;
66483;SDS011;53299;52.160;7.556;2022-12-20T07:53:20;3.78;;;1.30;;
66483;SDS011;53299;52.160;7.556;2022-12-20T07:55:47;3.58;;;1.40;;
66483;SDS011;53299;52.160;7.556;2022-12-20T07:58:13;3.27;;;1.30;;
66483;SDS011;53299;52.160;7.556;2022-12-20T08:00:39;3.83;;;1.40;;
66483;SDS011;53299;52.160;7.556;2022-12-20T08:03:06;4.77;;;1.43;;
66483;SDS011;53299;52.160;7.556;2022-12-20T08:05:36;5.15;;;1.40;;
66483;SDS011;53299;52.160;7.556;2022-12-20T08:08:04;3.55;;;1.40;;
66483;SDS011;53299;52.160;7.556;2022-12-20T08:10:30;3.63;;;1.40;;
66483;SDS011;53299;52.160;7.556;2022-12-20T08:12:56;3.67;;;1.30;;
66483;SDS011;53299;52.160;7.556;2022-12-20T08:15:22;4.75;;;1.50;;
66483;SDS011;53299;52.160;7.556;2022-12-20T08:17:48;3.47;;;1.33;;
66483;SDS011;53299;52.160;7.556;2022-12-20T08:20:14;3.85;;;1.48;;
66483;SDS011;53299;52.160;7.556;2022-12-20T08:22:39;4.50;;;1.50;;
66483;SDS011;53299;52.160;7.556;2022-12-20T08:25:04;4.00;;;1.40;;
66483;SDS011;53299;52.160;7.556;2022-12-20T08:27:30;4.75;;;1.55;;
66483;SDS011;53299;52.160;7.556;2022-12-20T08:29:55;4.03;;;1.50;;
66483;SDS011;53299;52.160;7.556;2022-12-20T08:32:21;4.20;;;1.40;;
66483;SDS011;53299;52.160;7.556;2022-12-20T08:34:46;4.57;;;1.40;;
66483;SDS011;53299;52.160;7.556;2022-12-20T08:37:11;3.53;;;1.30;;
66483;SDS011;53299;52.160;7.556;2022-12-20T08:39:36;5.33;;;1.60;;
66483;SDS011;53299;52.160;7.556;2022-12-20T08:42:03;4.53;;;1.47;;
66483;SDS011;53299;52.160;7.556;2022-12-20T08:44:29;4.80;;;1.50;;
66483;SDS011;53299;52.160;7.556;2022-12-20T08:46:54;4.30;;;1.50;;
66483;SDS011;53299;52.160;7.556;2022-12-20T08:49:19;6.20;;;1.73;;
66483;SDS011;53299;52.160;7.556;2022-12-20T08:51:44;6.03;;;1.70;;
66483;SDS011;53299;52.160;7.556;2022-12-20T08:54:10;4.80;;;1.43;;
66483;SDS011;53299;52.160;7.556;2022-12-20T08:56:35;4.97;;;1.80;;
66483;SDS011;53299;52.160;7.556;2022-12-20T08:59:00;6.00;;;1.50;;
66483;SDS011;53299;52.160;7.556;2022-12-20T09:01:25;4.70;;;1.60;;
66483;SDS011;53299;52.160;7.556;2022-12-20T09:03:51;4.33;;;1.40;;
66483;SDS011;53299;52.160;7.556;2022-12-20T09:06:18;4.70;;;1.50;;
66483;SDS011;53299;52.160;7.556;2022-12-20T09:08:44;4.30;;;1.40;;
66483;SDS011;53299;52.160;7.556;2022-12-20T09:11:12;4.72;;;1.42;;
66483;SDS011;53299;52.160;7.556;2022-12-20T09:13:40;3.85;;;1.45;;
66483;SDS011;53299;52.160;7.556;2022-12-20T09:16:07;6.20;;;1.50;;
66483;SDS011;53299;52.160;7.556;2022-12-20T09:18:33;4.83;;;1.80;;
66483;SDS011;53299;52.160;7.556;2022-12-20T09:20:59;5.60;;;1.52;;
66483;SDS011;53299;52.160;7.556;2022-12-20T09:23:28;5.10;;;1.80;;
66483;SDS011;53299;52.160;7.556;2022-12-20T09:25:54;4.80;;;1.60;;
66483;SDS011;53299;52.160;7.556;2022-12-20T09:28:20;4.57;;;1.60;;
66483;SDS011;53299;52.160;7.556;2022-12-20T09:30:46;4.32;;;1.60;;
66483;SDS011;53299;52.160;7.556;2022-12-20T09:33:11;4.77;;;1.50;;
66483;SDS011;53299;52.160;7.556;2022-12-20T09:35:43;4.67;;;1.60;;
66483;SDS011;53299;52.160;7.556;2022-12-20T09:38:09;5.00;;;1.70;;
66483;SDS011;53299;52.160;7.556;2022-12-20T09:40:34;4.80;;;1.60;;
66483;SDS011;53299;52.160;7.556;2022-12-20T09:43:00;4.83;;;1.50;;
66483;SDS011;53299;52.160;7.556;2022-12-20T09:45:29;3.63;;;1.33;;
66483;SDS011;53299;52.160;7.556;2022-12-20T09:47:59;4.63;;;1.50;;
66483;SDS011;53299;52.160;7.556;2022-12-20T09:50:30;4.22;;;1.30;;
66483;SDS011;53299;52.160;7.556;2022-12-20T09:53:27;3.88;;;1.35;;
66483;SDS011;53299;52.160;7.556;2022-12-20T09:56:17;4.83;;;1.60;;
66483;SDS011;53299;52.160;7.556;2022-12-20T10:01:26;3.10;;;1.13;;
66483;SDS011;53299;52.160;7.556;2022-12-20T10:03:53;4.45;;;1.42;;
66483;SDS011;53299;52.160;7.556;2022-12-20T10:08:59;4.40;;;1.40;;
66483;SDS011;53299;52.160;7.556;2022-12-20T10:16:41;3.72;;;1.30;;
66483;SDS011;53299;52.160;7.556;2022-12-20T10:21:55;4.53;;;1.57;;
66483;SDS011;53299;52.160;7.556;2022-12-20T10:24:32;5.30;;;1.65;;
66483;SDS011;53299;52.160;7.556;2022-12-20T10:27:06;4.05;;;1.40;;
66483;SDS011;53299;52.160;7.556;2022-12-20T10:29:38;4.85;;;1.40;;
66483;SDS011;53299;52.160;7.556;2022-12-20T10:32:04;5.63;;;1.73;;
66483;SDS011;53299;52.160;7.556;2022-12-20T10:34:41;5.53;;;1.53;;
66483;SDS011;53299;52.160;7.556;2022-12-20T10:37:28;4.43;;;1.60;;
66483;SDS011;53299;52.160;7.556;2022-12-20T10:39:53;4.97;;;1.67;;
66483;SDS011;53299;52.160;7.556;2022-12-20T10:42:23;4.80;;;1.63;;
66483;SDS011;53299;52.160;7.556;2022-12-20T10:45:03;4.72;;;1.60;;
66483;SDS011;53299;52.160;7.556;2022-12-20T10:47:50;4.28;;;1.50;;
66483;SDS011;53299;52.160;7.556;2022-12-20T10:50:19;7.27;;;1.60;;
66483;SDS011;53299;52.160;7.556;2022-12-20T10:53:32;4.65;;;1.50;;
66483;SDS011;53299;52.160;7.556;2022-12-20T10:58:05;4.83;;;1.50;;
66483;SDS011;53299;52.160;7.556;2022-12-20T11:00:49;5.20;;;1.70;;
66483;SDS011;53299;52.160;7.556;2022-12-20T11:03:18;5.07;;;1.70;;
66483;SDS011;53299;52.160;7.556;2022-12-20T11:06:19;4.88;;;1.60;;
66483;SDS011;53299;52.160;7.556;2022-12-20T11:08:39;5.20;;;1.83;;
66483;SDS011;53299;52.160;7.556;2022-12-20T11:11:21;5.20;;;1.80;;
66483;SDS011;53299;52.160;7.556;2022-12-20T11:13:48;5.47;;;1.90;;
66483;SDS011;53299;52.160;7.556;2022-12-20T11:16:34;5.80;;;2.00;;
66483;SDS011;53299;52.160;7.556;2022-12-20T11:19:05;5.63;;;1.83;;
66483;SDS011;53299;52.160;7.556;2022-12-20T11:21:43;6.18;;;2.08;;
66483;SDS011;53299;52.160;7.556;2022-12-20T11:30:21;5.55;;;2.10;;
66483;SDS011;53299;52.160;7.556;2022-12-20T11:46:56;5.60;;;2.13;;
66483;SDS011;53299;52.160;7.556;2022-12-20T11:49:48;7.00;;;2.30;;
66483;SDS011;53299;52.160;7.556;2022-12-20T11:52:44;6.28;;;2.40;;
66483;SDS011;53299;52.160;7.556;2022-12-20T11:55:18;7.32;;;2.30;;
66483;SDS011;53299;52.160;7.556;2022-12-20T12:00:21;6.90;;;2.47;;
66483;SDS011;53299;52.160;7.556;2022-12-20T12:02:49;9.68;;;2.80;;
66483;SDS011;53299;52.160;7.556;2022-12-20T12:07:57;7.57;;;2.65;;
66483;SDS011;53299;52.160;7.556;2022-12-20T12:10:29;6.30;;;2.20;;
66483;SDS011;53299;52.160;7.556;2022-12-20T12:13:10;6.80;;;2.40;;
66483;SDS011;53299;52.160;7.556;2022-12-20T12:15:44;6.22;;;2.20;;
66483;SDS011;53299;52.160;7.556;2022-12-20T12:18:17;6.85;;;2.45;;
66483;SDS011;53299;52.160;7.556;2022-12-20T12:23:30;6.23;;;2.40;;
66483;SDS011;53299;52.160;7.556;2022-12-20T12:26:02;7.10;;;2.50;;
66483;SDS011;53299;52.160;7.556;2022-12-20T12:28:31;6.23;;;2.30;;
66483;SDS011;53299;52.160;7.556;2022-12-20T12:31:05;6.63;;;2.40;;
66483;SDS011;53299;52.160;7.556;2022-12-20T12:33:41;7.57;;;2.50;;
66483;SDS011;53299;52.160;7.556;2022-12-20T12:41:55;6.60;;;2.27;;
66483;SDS011;53299;52.160;7.556;2022-12-20T12:47:20;7.57;;;2.38;;
66483;SDS011;53299;52.160;7.556;2022-12-20T12:49:52;6.35;;;2.10;;
66483;SDS011;53299;52.160;7.556;2022-12-20T12:52:53;6.20;;;2.10;;
66483;SDS011;53299;52.160;7.556;2022-12-20T13:11:36;9.07;;;2.00;;
66483;SDS011;53299;52.160;7.556;2022-12-20T13:16:47;6.60;;;2.10;;
66483;SDS011;53299;52.160;7.556;2022-12-20T13:19:16;6.50;;;2.10;;
66483;SDS011;53299;52.160;7.556;2022-12-20T13:21:55;6.57;;;2.10;;
66483;SDS011;53299;52.160;7.556;2022-12-20T13:24:48;6.00;;;2.10;;
66483;SDS011;53299;52.160;7.556;2022-12-20T13:27:21;5.80;;;2.17;;
66483;SDS011;53299;52.160;7.556;2022-12-20T13:37:54;6.40;;;2.65;;
66483;SDS011;53299;52.160;7.556;2022-12-20T13:40:41;7.63;;;2.90;;
66483;SDS011;53299;52.160;7.556;2022-12-20T13:43:15;7.03;;;2.80;;
66483;SDS011;53299;52.160;7.556;2022-12-20T13:45:46;7.50;;;2.95;;
66483;SDS011;53299;52.160;7.556;2022-12-20T13:48:15;7.80;;;2.90;;
66483;SDS011;53299;52.160;7.556;2022-12-20T13:50:48;6.78;;;2.92;;
66483;SDS011;53299;52.160;7.556;2022-12-20T13:53:16;7.78;;;2.95;;
66483;SDS011;53299;52.160;7.556;2022-12-20T13:55:43;8.18;;;3.28;;
66483;SDS011;53299;52.160;7.556;2022-12-20T13:58:12;9.83;;;3.37;;
66483;SDS011;53299;52.160;7.556;2022-12-20T14:00:40;8.30;;;3.50;;
66483;SDS011;53299;52.160;7.556;2022-12-20T14:03:11;8.93;;;3.50;;
66483;SDS011;53299;52.160;7.556;2022-12-20T14:05:42;8.30;;;3.70;;
66483;SDS011;53299;52.160;7.556;2022-12-20T14:08:08;8.10;;;3.47;;
66483;SDS011;53299;52.160;7.556;2022-12-20T14:10:38;8.10;;;3.70;;
66483;SDS011;53299;52.160;7.556;2022-12-20T14:13:21;8.20;;;3.87;;
66483;SDS011;53299;52.160;7.556;2022-12-20T14:15:48;9.40;;;4.05;;
66483;SDS011;53299;52.160;7.556;2022-12-20T14:18:23;9.03;;;3.53;;
66483;SDS011;53299;52.160;7.556;2022-12-20T14:20:50;8.07;;;3.30;;
66483;SDS011;53299;52.160;7.556;2022-12-20T14:23:20;8.88;;;3.60;;
66483;SDS011;53299;52.160;7.556;2022-12-20T14:25:57;9.23;;;3.80;;
66483;SDS011;53299;52.160;7.556;2022-12-20T14:28:27;7.88;;;3.50;;
66483;SDS011;53299;52.160;7.556;2022-12-20T14:31:00;8.27;;;3.30;;
66483;SDS011;53299;52.160;7.556;2022-12-20T14:33:28;9.90;;;4.20;;
66483;SDS011;53299;52.160;7.556;2022-12-20T14:35:55;10.27;;;3.80;;
66483;SDS011;53299;52.160;7.556;2022-12-20T14:38:22;9.20;;;3.90;;
66483;SDS011;53299;52.160;7.556;2022-12-20T14:40:52;9.43;;;3.83;;
66483;SDS011;53299;52.160;7.556;2022-12-20T14:43:28;8.73;;;3.80;;
66483;SDS011;53299;52.160;7.556;2022-12-20T14:46:08;8.90;;;3.50;;
66483;SDS011;53299;52.160;7.556;2022-12-20T14:48:41;8.38;;;3.50;;
66483;SDS011;53299;52.160;7.556;2022-12-20T14:51:07;9.57;;;3.80;;
66483;SDS011;53299;52.160;7.556;2022-12-20T14:53:32;7.57;;;3.23;;
66483;SDS011;53299;52.160;7.556;2022-12-20T14:55:57;8.70;;;3.80;;
66483;SDS011;53299;52.160;7.556;2022-12-20T14:58:24;8.97;;;3.60;;
66483;SDS011;53299;52.160;7.556;2022-12-20T15:00:56;8.20;;;3.33;;
66483;SDS011;53299;52.160;7.556;2022-12-20T15:03:50;8.30;;;3.38;;
66483;SDS011;53299;52.160;7.556;2022-12-20T15:09:01;7.47;;;3.22;;
66483;SDS011;53299;52.160;7.556;2022-12-20T15:11:27;7.07;;;2.77;;
66483;SDS011;53299;52.160;7.556;2022-12-20T15:13:52;7.13;;;2.80;;
66483;SDS011;53299;52.160;7.556;2022-12-20T15:18:48;7.68;;;3.10;;
66483;SDS011;53299;52.160;7.556;2022-12-20T15:23:51;7.95;;;3.15;;
66483;SDS011;53299;52.160;7.556;2022-12-20T15:26:19;8.27;;;3.00;;
66483;SDS011;53299;52.160;7.556;2022-12-20T15:28:46;7.00;;;3.10;;
66483;SDS011;53299;52.160;7.556;2022-12-20T15:31:12;7.47;;;2.83;;
66483;SDS011;53299;52.160;7.556;2022-12-20T15:33:40;6.73;;;2.63;;
66483;SDS011;53299;52.160;7.556;2022-12-20T15:36:08;6.93;;;2.60;;
66483;SDS011;53299;52.160;7.556;2022-12-20T15:38:48;6.53;;;2.70;;
66483;SDS011;53299;52.160;7.556;2022-12-20T15:43:58;6.28;;;2.58;;
66483;SDS011;53299;52.160;7.556;2022-12-20T15:46:25;7.57;;;2.93;;
66483;SDS011;53299;52.160;7.556;2022-12-20T15:48:51;6.30;;;2.70;;
66483;SDS011;53299;52.160;7.556;2022-12-20T15:51:27;7.00;;;2.70;;
66483;SDS011;53299;52.160;7.556;2022-12-20T15:53:55;7.07;;;2.60;;
66483;SDS011;53299;52.160;7.556;2022-12-20T15:56:21;6.07;;;2.60;;
66483;SDS011;53299;52.160;7.556;2022-12-20T15:58:47;5.97;;;2.50;;
66483;SDS011;53299;52.160;7.556;2022-12-20T16:01:17;6.47;;;2.58;;
66483;SDS011;53299;52.160;7.556;2022-12-20T16:03:45;6.87;;;2.73;;
66483;SDS011;53299;52.160;7.556;2022-12-20T16:06:10;5.55;;;2.33;;
66483;SDS011;53299;52.160;7.556;2022-12-20T16:08:36;6.40;;;2.47;;
66483;SDS011;53299;52.160;7.556;2022-12-20T16:11:01;6.13;;;2.67;;
66483;SDS011;53299;52.160;7.556;2022-12-20T16:13:26;5.93;;;2.40;;
66483;SDS011;53299;52.160;7.556;2022-12-20T16:15:51;5.90;;;2.47;;
66483;SDS011;53299;52.160;7.556;2022-12-20T16:18:17;6.10;;;2.20;;
66483;SDS011;53299;52.160;7.556;2022-12-20T16:20:42;6.10;;;2.50;;
66483;SDS011;53299;52.160;7.556;2022-12-20T16:23:17;6.60;;;2.45;;
66483;SDS011;53299;52.160;7.556;2022-12-20T16:25:45;6.00;;;2.47;;
66483;SDS011;53299;52.160;7.556;2022-12-20T16:28:10;6.07;;;2.30;;
66483;SDS011;53299;52.160;7.556;2022-12-20T16:30:36;5.97;;;2.40;;
66483;SDS011;53299;52.160;7.556;2022-12-20T16:33:01;6.33;;;2.30;;